Latest Weather Observations for Proserpine

IDQ60801

Issued at 6:35 pm EST Sunday 26 October 2014 (issued every 30 minutes, with the page automatically refreshed every 10 minutes)

About weather observations | Map of weather stations | Latest weather observations for QLD | Other Formats
Station Details ID: 033247 Name: PROSERPINE AIRPORT Lat: -20.49 Lon: 148.56 Height: 19.7 m
Data from the previous 72 hours. | See also: Recent months at Proserpine
Date/Time
EST
Temp
°C
App
Temp
°C
Dew
Point
Rel
Hum
%
Delta-T
°C
Wind Press
QNH
hPa
Press
MSL
hPa
Rain
since 9 am
mm
Dir
 
Spd
km/h
Gust
km/h
Spd
kts
Gust
kts
26/06:30pm 22.8 23.0 16.8 69 3.7 ESE 11 15 6 8 1015.5 - 0.0
26/06:00pm 24.8 24.5 16.5 60 5.1 E 13 17 7 9 1015.3 1015.2 0.0
26/05:30pm 26.2 24.6 15.9 53 6.3 ESE 19 24 10 13 1015.1 - 0.0
26/05:00pm 27.2 24.7 14.2 44 7.8 ESE 20 28 11 15 1014.6 - 0.0
26/04:30pm 28.6 26.1 15.2 44 8.2 ESE 22 30 12 16 1014.2 - 0.0
26/04:00pm 29.2 26.8 15.3 42 8.5 SE 22 32 12 17 1014.0 - 0.0
26/03:30pm 29.4 27.3 14.8 41 8.9 ESE 19 26 10 14 1014.0 - 0.0
26/03:00pm 29.8 27.8 14.0 38 9.5 E 17 24 9 13 1014.2 1014.1 0.0
26/02:30pm 30.7 28.0 13.0 33 10.5 E 19 24 10 13 1014.4 - 0.0
26/02:00pm 30.0 27.6 11.5 32 10.7 E 15 26 8 14 1014.7 - 0.0
26/01:30pm 30.6 27.7 9.5 27 11.9 ESE 15 26 8 14 1015.1 - 0.0
26/01:00pm 29.6 27.9 11.2 32 10.6 ESE 11 22 6 12 1015.5 - 0.0
26/12:30pm 29.3 27.2 13.5 38 9.4 E 17 26 9 14 1015.9 - 0.0
26/12:00pm 28.6 26.8 13.3 39 9.1 ENE 15 24 8 13 1016.4 1016.3 0.0
26/11:30am 28.9 26.9 13.9 39 9.0 E 17 24 9 13 1016.8 - 0.0
26/11:00am 29.0 27.3 14.8 42 8.6 E 17 26 9 14 1017.1 - 0.0
26/10:30am 28.1 26.5 15.1 45 7.9 ESE 17 26 9 14 1017.5 - 0.0
26/10:00am 27.2 27.0 15.6 49 7.1 ESE 11 20 6 11 1017.7 - 0.0
26/09:30am 26.3 25.6 15.4 51 6.6 ESE 13 22 7 12 1017.9 - 0.0
26/09:00am 25.0 25.0 16.2 58 5.4 ESE 11 15 6 8 1018.3 1018.2 0.0
26/08:30am 25.2 26.1 16.6 59 5.3 E 7 17 4 9 1018.4 - 0.0
26/08:00am 24.3 25.5 17.3 65 4.3 SSW 7 15 4 8 1018.2 - 0.0
26/07:30am 22.7 23.5 17.4 72 3.3 S 9 13 5 7 1018.3 - 0.0
26/07:00am 20.0 21.1 17.2 84 1.7 SW 7 9 4 5 1018.2 - 0.0
26/06:30am 17.6 18.5 16.6 94 0.6 SSW 7 9 4 5 1018.1 - 0.0
26/06:00am 15.6 15.9 15.0 96 0.3 SSW 7 9 4 5 1017.8 1017.7 0.0
26/05:30am 14.9 14.9 14.1 95 0.5 SSW 7 9 4 5 1017.6 - 0.0
26/05:00am 15.4 15.8 14.8 96 0.3 SSW 6 7 3 4 1017.2 - 0.0
26/04:30am 14.7 15.9 13.9 95 0.4 CALM 0 0 0 0 1017.1 - 0.0
26/04:00am 14.6 14.6 13.6 94 0.6 SSW 6 7 3 4 1017.0 - 0.0
26/03:30am 14.9 15.0 13.8 93 0.6 SW 6 6 3 3 1017.0 - 0.0
26/03:00am 15.9 16.2 14.6 92 0.7 SW 6 7 3 4 1017.0 1016.9 0.0
26/02:30am 16.7 17.4 15.6 93 0.6 SSW 6 7 3 4 1017.1 - 0.0
26/02:00am 17.3 17.9 15.8 91 0.9 SW 7 9 4 5 1017.3 - 0.0
26/01:30am 17.5 18.1 15.8 90 1.0 SSW 7 9 4 5 1017.6 - 0.0
26/01:00am 17.8 18.7 16.0 89 1.1 SSW 6 7 3 4 1017.8 - 0.0
26/12:30am 17.8 18.5 16.1 90 1.0 SSW 7 9 4 5 1018.1 - 0.0
26/12:00am 17.6 17.9 16.1 91 0.9 SSW 9 11 5 6 1018.4 1018.3 0.0
 
Date/Time
EST
Temp
°C
App
Temp
°C
Dew
Point
Rel
Hum
%
Delta-T
°C
Wind Press
QNH
hPa
Press
MSL
hPa
Rain
since 9 am
mm
Dir
 
Spd
km/h
Gust
km/h
Spd
kts
Gust
kts
25/11:30pm 17.8 18.7 16.1 90 1.0 SSW 6 9 3 5 1018.7 - 0.0
25/11:00pm 17.8 18.1 16.0 89 1.1 SSW 9 9 5 5 1019.0 - 0.0
25/10:30pm 18.5 19.5 16.8 90 1.0 S 7 9 4 5 1019.1 - 0.0
25/10:00pm 18.2 20.4 16.4 89 1.1 CALM 0 0 0 0 1019.3 - 0.0
25/09:30pm 18.7 19.7 16.3 86 1.4 S 6 6 3 3 1019.3 - 0.0
25/09:00pm 19.2 20.8 15.9 81 2.0 S 2 6 1 3 1019.2 1019.1 0.0
25/08:30pm 20.1 21.0 16.5 80 2.2 S 7 9 4 5 1019.0 - 0.0
25/08:00pm 20.9 22.2 17.1 79 2.3 SSE 6 9 3 5 1018.7 - 0.0
25/07:30pm 20.9 21.5 16.9 78 2.4 ESE 9 11 5 6 1018.4 - 0.0
25/07:00pm 21.4 21.5 16.6 74 2.9 ESE 11 13 6 7 1018.0 - 0.0
25/06:30pm 22.3 22.4 16.6 70 3.5 ESE 11 17 6 9 1017.9 - 0.0
25/06:00pm 23.4 22.6 16.0 63 4.5 ESE 15 19 8 10 1017.7 1017.5 0.0
25/05:30pm 24.5 23.0 16.2 60 5.1 ESE 19 26 10 14 1017.3 - 0.0
25/05:00pm 25.2 23.1 16.1 57 5.6 ESE 22 28 12 15 1017.0 - 0.0
25/04:30pm 26.1 24.1 16.4 55 6.0 ESE 22 32 12 17 1016.7 - 0.0
25/04:00pm 27.3 24.5 14.3 45 7.8 ESE 22 32 12 17 1016.4 - 0.0
25/03:30pm 27.2 24.5 14.6 46 7.6 E 22 32 12 17 1016.4 - 0.0
25/03:00pm 28.1 24.7 13.6 41 8.6 ESE 24 32 13 17 1016.3 1016.3 0.0
25/02:30pm 27.8 25.0 13.3 40 8.6 ESE 20 32 11 17 1016.7 - 0.0
25/02:00pm 28.9 25.1 12.3 36 9.7 ESE 24 32 13 17 1016.9 - 0.0
25/01:30pm 29.7 26.4 11.7 33 10.4 E 20 30 11 16 1017.1 - 0.0
25/01:00pm 29.4 26.1 11.5 33 10.3 E 20 30 11 16 1017.4 - 0.0
25/12:30pm 28.4 24.8 10.6 33 10.1 E 20 30 11 16 1018.0 - 0.0
25/12:00pm 28.6 26.7 15.2 44 8.2 ESE 19 30 10 16 1018.6 1018.5 0.0
25/11:30am 28.2 26.6 16.1 47 7.5 ESE 19 28 10 15 1019.0 - 0.0
25/11:00am 27.7 27.2 16.0 49 7.2 ESE 13 22 7 12 1019.4 - 0.0
25/10:30am 26.1 24.6 15.2 51 6.6 SE 17 30 9 16 1019.6 - 0.0
25/10:00am 27.0 25.8 16.0 51 6.8 E 17 24 9 13 1020.0 - 0.0
25/09:30am 26.6 24.5 16.2 52 6.4 SE 22 35 12 19 1020.2 - 0.0
25/09:00am 26.6 25.7 17.7 58 5.6 SSE 19 26 10 14 1020.5 1020.4 0.0
25/08:30am 24.2 23.5 16.5 62 4.7 ESE 15 26 8 14 1020.6 - 0.0
25/08:00am 23.5 23.3 16.8 66 4.1 ESE 13 19 7 10 1020.6 - 0.0
25/07:30am 23.5 23.2 17.3 68 3.8 SSE 15 20 8 11 1020.4 - 0.0
25/07:00am 21.8 22.7 17.6 77 2.6 S 9 15 5 8 1020.1 - 0.0
25/06:30am 18.4 18.9 16.6 89 1.1 S 9 13 5 7 1020.0 - 0.0
25/06:00am 16.8 16.6 15.8 94 0.6 SSW 11 11 6 6 1019.6 1019.5 0.0
25/05:30am 15.7 15.8 14.4 92 0.7 SSW 7 9 4 5 1019.1 - 0.0
25/05:00am 16.3 18.0 15.2 93 0.6 CALM 0 0 0 0 1018.9 - 0.0
25/04:30am 16.5 17.9 15.4 93 0.6 SW 2 7 1 4 1018.6 - 0.0
25/04:00am 16.1 15.9 14.8 92 0.7 SSW 9 11 5 6 1018.6 - 0.0
25/03:30am 16.1 15.3 15.0 93 0.6 SSW 13 13 7 7 1018.5 - 0.0
25/03:00am 15.9 15.6 14.4 91 0.9 SSW 9 11 5 6 1018.5 1018.5 0.0
25/02:30am 16.3 15.7 14.7 90 0.9 SSW 11 11 6 6 1018.7 - 0.0
25/02:00am 16.7 16.1 14.7 88 1.2 SSW 11 13 6 7 1018.9 - 0.0
25/01:30am 18.2 18.2 15.3 83 1.7 S 9 11 5 6 1019.2 - 0.0
25/01:00am 19.1 18.9 15.6 80 2.1 S 11 15 6 8 1019.6 - 0.0
25/12:30am 19.5 19.0 15.8 79 2.2 SSE 13 17 7 9 1020.0 - 0.0
25/12:00am 19.1 18.5 15.6 80 2.1 S 13 15 7 8 1020.4 1020.2 0.0
 
Date/Time
EST
Temp
°C
App
Temp
°C
Dew
Point
Rel
Hum
%
Delta-T
°C
Wind Press
QNH
hPa
Press
MSL
hPa
Rain
since 9 am
mm
Dir
 
Spd
km/h
Gust
km/h
Spd
kts
Gust
kts
24/11:30pm 18.8 19.2 16.2 85 1.6 S 9 13 5 7 1020.7 - 0.0
24/11:00pm 17.3 18.1 14.9 86 1.4 S 4 7 2 4 1020.9 - 0.0
24/10:30pm 17.5 18.1 15.3 87 1.3 SW 6 7 3 4 1021.1 - 0.0
24/10:00pm 18.2 18.5 14.9 81 1.9 S 7 9 4 5 1021.1 - 0.0
24/09:30pm 19.7 20.5 15.8 78 2.3 SE 6 7 3 4 1020.8 - 0.0
24/09:00pm 20.1 20.0 15.9 77 2.5 ESE 11 15 6 8 1020.6 1020.4 0.0
24/08:30pm 20.6 20.1 16.0 75 2.8 ESE 13 17 7 9 1020.2 - 0.0
24/08:00pm 19.8 20.1 15.9 78 2.3 ESE 9 15 5 8 1019.8 - 0.0
24/07:30pm 20.4 20.2 15.6 74 2.9 E 11 13 6 7 1019.5 - 0.0
24/07:00pm 21.1 19.7 15.6 71 3.3 E 17 20 9 11 1019.3 - 0.0
24/06:30pm 21.8 20.8 15.6 68 3.7 E 15 20 8 11 1019.1 - 0.0
24/06:00pm 22.9 20.8 15.2 62 4.6 ESE 20 26 11 14 1018.9 1018.8 0.0
24/05:30pm 23.7 21.2 15.2 59 5.1 ESE 22 28 12 15 1018.5 - 0.0
24/05:00pm 24.5 22.2 14.6 54 5.9 ESE 20 28 11 15 1018.2 - 0.0
24/04:30pm 25.5 22.5 14.9 52 6.4 ESE 24 32 13 17 1018.0 - 0.0
24/04:00pm 25.7 22.4 15.1 52 6.4 ESE 26 39 14 21 1017.8 - 0.0
24/03:30pm 26.5 22.9 14.3 47 7.3 ESE 26 37 14 20 1017.7 - 0.0
24/03:00pm 26.6 21.9 13.3 43 7.8 ESE 30 37 16 20 1017.7 1017.6 0.0
24/02:30pm 27.4 23.3 12.6 40 8.6 E 26 35 14 19 1017.7 - 0.0
24/02:00pm 28.2 24.4 13.7 41 8.6 E 26 41 14 22 1018.0 - 0.0
24/01:30pm 27.3 24.4 14.0 44 7.9 E 22 35 12 19 1018.4 - 0.0
24/01:00pm 26.9 24.4 14.0 45 7.7 E 20 32 11 17 1018.6 - 0.0
24/12:30pm 27.0 23.6 13.7 44 7.9 ESE 24 41 13 22 1019.1 - 0.0
24/12:00pm 27.0 23.6 13.7 44 7.9 ESE 24 37 13 20 1019.3 1019.2 0.0
24/11:30am 27.3 23.7 12.9 41 8.4 SE 24 35 13 19 1019.6 - 0.0
24/11:00am 27.3 23.8 13.3 42 8.3 SE 24 33 13 18 1020.0 - 0.0
24/10:30am 26.5 23.9 13.9 45 7.5 SE 20 33 11 18 1020.2 - 0.0
24/10:00am 25.6 22.9 13.5 47 7.1 ESE 20 32 11 17 1020.7 - 0.0
24/09:30am 25.8 22.9 14.0 48 7.0 ESE 22 37 12 20 1020.8 - 0.0
24/09:00am 24.5 21.4 13.4 50 6.5 ESE 22 32 12 17 1021.0 1020.8 0.0
24/08:30am 23.7 21.7 13.8 53 5.8 SE 17 28 9 15 1020.9 - 0.0
24/08:00am 23.8 22.2 15.0 57 5.3 SSE 17 22 9 12 1020.7 - 0.0
24/07:30am 22.3 22.3 16.3 69 3.6 S 11 19 6 10 1020.5 - 0.0
24/07:00am 19.4 20.1 16.2 82 1.9 S 7 9 4 5 1020.2 - 0.0
24/06:30am 16.3 18.0 15.3 94 0.6 CALM 0 7 0 4 1020.1 - 0.0
24/06:00am 13.4 14.2 12.5 94 0.5 CALM 0 0 0 0 1019.8 1019.6 0.0
24/05:30am 13.0 13.7 12.1 94 0.5 CALM 0 0 0 0 1019.4 - 0.0
24/05:00am 13.8 14.6 12.5 92 0.7 CALM 0 0 0 0 1019.0 - 0.0
24/04:30am 14.6 14.4 13.5 93 0.6 SSW 7 9 4 5 1018.7 - 0.0
24/04:00am 14.9 14.4 13.8 93 0.6 SSW 9 11 5 6 1018.4 - 0.0
24/03:30am 15.1 14.3 14.1 94 0.6 SSW 11 13 6 7 1018.5 - 0.0
24/03:00am 15.1 14.7 14.1 94 0.6 SSW 9 11 5 6 1018.4 1018.3 0.0
24/02:30am 14.8 14.2 13.5 92 0.7 SSW 9 13 5 7 1018.7 - 0.0
24/02:00am 15.6 17.0 14.5 93 0.6 CALM 0 0 0 0 1018.8 - 0.0
24/01:30am 15.8 16.9 14.5 92 0.7 SSW 2 6 1 3 1019.3 - 0.0
24/01:00am 15.7 15.3 14.2 91 0.9 SSW 9 11 5 6 1019.5 - 0.0
24/12:30am 15.9 15.2 14.4 91 0.9 SSW 11 13 6 7 1019.9 - 0.0
24/12:00am 16.3 15.7 14.7 90 0.9 SSW 11 13 6 7 1020.2 1020.1 0.0
 
Date/Time
EST
Temp
°C
App
Temp
°C
Dew
Point
Rel
Hum
%
Delta-T
°C
Wind Press
QNH
hPa
Press
MSL
hPa
Rain
since 9 am
mm
Dir
 
Spd
km/h
Gust
km/h
Spd
kts
Gust
kts
23/11:30pm 16.7 16.2 14.9 89 1.0 SSW 11 13 6 7 1020.5 - 0.0
23/11:00pm 17.2 17.0 14.8 86 1.4 SSW 9 11 5 6 1020.8 - 0.0
23/10:30pm 18.0 18.0 15.1 83 1.7 SSW 9 11 5 6 1020.8 - 0.0
23/10:00pm 18.4 18.1 15.5 83 1.7 S 11 13 6 7 1020.6 - 0.0
23/09:30pm 18.7 18.1 15.6 82 1.8 SSW 13 15 7 8 1020.6 - 0.0
23/09:00pm 18.8 18.4 15.3 80 2.1 SSW 11 13 6 7 1020.1 1020.0 0.0
23/08:30pm 20.1 20.8 16.1 78 2.4 S 7 11 4 6 1019.7 - 0.0
23/08:00pm 19.7 20.3 15.8 78 2.3 SSW 7 9 4 5 1019.5 - 0.0
23/07:30pm 19.9 20.5 15.3 75 2.7 SE 6 7 3 4 1019.3 - 0.0
23/07:00pm 20.4 20.5 15.4 73 3.0 E 9 13 5 7 1019.1 - 0.0

Other Formats:

Comma delimited format used in spreadsheet applications
http://www.bom.gov.au/fwo/IDQ60801/IDQ60801.94365.axf

JavaScript Object Notation format (JSON) in row-major order
http://www.bom.gov.au/fwo/IDQ60801/IDQ60801.94365.json